Time;durP1;ratioP1;P1;durP2;ratioP2;P2;SDS_P1;SDS_P2;PMS_P1;PMS_P2;Temp;Humidity;BMP_temperature;BMP_pressure;BME280_temperature;BME280_humidity;BME280_pressure;Samples;Min_cycle;Max_cycle;Signal;HPM_P1;HPM_P2
2022/08/31 00:03:57;;;;;;;4.60;2.05;;;;;;;19.86;60.23;102108.59;5074363;28;20104;-52
2022/08/31 00:06:22;;;;;;;5.93;1.80;;;;;;;19.79;59.98;102114.59;5073563;28;20044;-52
2022/08/31 00:08:48;;;;;;;3.15;1.85;;;;;;;19.81;60.12;102111.13;5077515;28;20484;-49
2022/08/31 00:11:15;;;;;;;5.75;1.60;;;;;;;19.81;60.54;102112.88;5068524;28;20032;-51
2022/08/31 00:13:41;;;;;;;3.38;1.70;;;;;;;19.76;60.51;102110.22;5070780;28;20473;-52
2022/08/31 00:16:09;;;;;;;3.05;1.85;;;;;;;19.74;60.49;102121.50;5073493;28;20027;-51
2022/08/31 00:18:34;;;;;;;3.30;1.98;;;;;;;19.68;60.33;102117.09;5071619;28;20024;-47
2022/08/31 00:21:00;;;;;;;2.70;1.70;;;;;;;19.62;60.73;102122.25;5069895;28;20043;-52
2022/08/31 00:23:25;;;;;;;4.38;1.92;;;;;;;19.68;61.21;102117.09;5069009;28;20052;-48
2022/08/31 00:25:51;;;;;;;4.47;1.90;;;;;;;19.66;60.96;102118.84;5071421;28;20021;-51
2022/08/31 00:28:18;;;;;;;2.00;1.70;;;;;;;19.60;61.11;102123.97;5072328;28;20119;-49
2022/08/31 00:30:44;;;;;;;3.20;1.90;;;;;;;19.50;61.01;102111.66;5065798;28;20037;-51
2022/08/31 00:33:10;;;;;;;4.40;2.17;;;;;;;19.56;61.23;102114.31;5067827;28;20039;-51
2022/08/31 00:35:37;;;;;;;3.78;1.60;;;;;;;19.51;61.19;102109.06;5073042;28;20115;-50
2022/08/31 00:38:04;;;;;;;8.30;1.90;;;;;;;19.44;61.58;102111.59;5075281;28;20028;-51
2022/08/31 00:40:30;;;;;;;6.45;1.90;;;;;;;19.44;61.64;102117.69;5068902;28;20117;-47
2022/08/31 00:42:58;;;;;;;2.72;1.77;;;;;;;19.42;61.86;102113.31;5078277;28;20105;-51
2022/08/31 00:45:23;;;;;;;3.95;1.92;;;;;;;19.43;61.85;102109.84;5073365;28;20077;-50
2022/08/31 00:47:49;;;;;;;2.88;2.03;;;;;;;19.45;61.57;102114.19;5069699;28;20617;-51
2022/08/31 00:50:17;;;;;;;2.00;1.60;;;;;;;19.31;61.79;102112.31;5070538;28;20556;-52
2022/08/31 00:52:49;;;;;;;5.15;2.15;;;;;;;19.31;62.05;102112.31;5071851;28;20045;-50
2022/08/31 00:55:19;;;;;;;4.20;2.00;;;;;;;19.34;62.07;102114.94;5070597;28;20024;-51
2022/08/31 00:57:48;;;;;;;3.67;2.00;;;;;;;19.29;62.26;102112.25;5074393;28;20084;-51
2022/08/31 01:00:16;;;;;;;6.50;1.90;;;;;;;19.25;61.88;102106.16;5071153;28;20461;-49
2022/08/31 01:02:42;;;;;;;4.35;2.00;;;;;;;19.24;62.10;102100.94;5067773;28;20651;-52
2022/08/31 01:05:08;;;;;;;3.05;1.80;;;;;;;19.21;62.50;102104.34;5068779;28;20028;-47
2022/08/31 01:07:34;;;;;;;2.83;1.70;;;;;;;19.18;62.15;102103.47;5070033;28;20036;-51
2022/08/31 01:10:01;;;;;;;3.50;1.67;;;;;;;19.16;62.47;102100.81;5075514;28;20058;-51
2022/08/31 01:12:27;;;;;;;3.20;1.60;;;;;;;19.19;62.19;102098.25;5073061;28;20126;-50
2022/08/31 01:14:53;;;;;;;2.88;1.90;;;;;;;19.15;62.54;102100.81;5070888;28;20024;-51
2022/08/31 01:17:19;;;;;;;1.90;1.58;;;;;;;19.06;62.71;102103.31;5072504;28;20043;-49
2022/08/31 01:20:19;;;;;;;3.67;1.80;;;;;;;19.17;62.04;102104.28;5068156;28;20017;-51
2022/08/31 01:23:14;;;;;;;4.20;1.70;;;;;;;19.08;62.40;102102.47;5058665;28;20035;-51
2022/08/31 01:25:43;;;;;;;3.20;1.85;;;;;;;19.03;62.72;102099.78;5066549;28;20121;-51
2022/08/31 01:28:09;;;;;;;5.68;1.60;;;;;;;18.97;63.04;102104.03;5067811;28;20062;-52
2022/08/31 01:30:36;;;;;;;4.38;1.80;;;;;;;18.97;62.74;102104.91;5071111;28;20120;-51
2022/08/31 01:33:02;;;;;;;2.58;1.63;;;;;;;18.97;62.87;102106.66;5068908;28;20108;-51
2022/08/31 01:35:28;;;;;;;6.47;1.70;;;;;;;18.88;63.29;102098.72;5066236;28;20048;-51
2022/08/31 01:37:55;;;;;;;3.22;1.70;;;;;;;18.85;63.18;102098.66;5066841;28;20072;-51
2022/08/31 01:40:23;;;;;;;5.03;1.60;;;;;;;18.82;63.54;102101.25;5071822;28;20032;-51
2022/08/31 01:42:49;;;;;;;3.03;1.70;;;;;;;18.83;63.40;102103.88;5071111;28;20090;-51
2022/08/31 01:45:14;;;;;;;2.75;1.45;;;;;;;18.80;63.50;102108.16;5066003;28;20024;-47
2022/08/31 01:47:40;;;;;;;2.58;1.60;;;;;;;18.80;63.20;102114.22;5071786;28;20416;-50
2022/08/31 01:50:06;;;;;;;6.00;1.80;;;;;;;18.68;63.57;102107.13;5075475;28;20056;-48
2022/08/31 01:52:33;;;;;;;3.28;1.58;;;;;;;18.73;63.68;102110.66;5069771;28;20609;-51
2022/08/31 01:54:59;;;;;;;4.30;1.60;;;;;;;18.78;63.31;102115.94;5069664;28;20851;-51
2022/08/31 01:57:25;;;;;;;3.50;1.80;;;;;;;18.71;63.47;102101.97;5069628;28;20083;-47
2022/08/31 01:59:50;;;;;;;2.63;1.63;;;;;;;18.72;63.75;102103.72;5067325;28;20040;-50
2022/08/31 02:02:15;;;;;;;2.70;1.90;;;;;;;18.67;63.79;102097.56;5073844;28;20039;-51
2022/08/31 02:04:41;;;;;;;2.63;1.90;;;;;;;18.58;63.91;102107.81;5071713;28;20040;-51
2022/08/31 02:07:06;;;;;;;6.50;1.73;;;;;;;18.55;64.13;102102.56;5074392;28;20089;-50
2022/08/31 02:09:31;;;;;;;2.63;1.60;;;;;;;18.59;63.95;102101.75;5067923;28;20028;-50
2022/08/31 02:11:57;;;;;;;3.83;1.80;;;;;;;18.56;63.84;102096.47;5067219;28;20459;-49
2022/08/31 02:14:22;;;;;;;2.53;1.65;;;;;;;18.45;64.12;102103.28;5069490;28;20129;-49
2022/08/31 02:16:48;;;;;;;4.30;1.90;;;;;;;18.44;64.23;102106.72;5070112;28;20036;-52
2022/08/31 02:19:13;;;;;;;3.05;1.48;;;;;;;18.48;64.08;102106.78;5071653;28;20036;-52
2022/08/31 02:21:39;;;;;;;2.38;1.70;;;;;;;18.42;64.32;102100.63;5064345;28;20033;-51
2022/08/31 02:24:05;;;;;;;4.38;1.73;;;;;;;18.40;64.27;102103.22;5069052;28;20040;-49
2022/08/31 02:26:31;;;;;;;4.55;1.83;;;;;;;18.29;64.58;102101.28;5066870;28;20036;-51
2022/08/31 02:28:56;;;;;;;3.53;1.70;;;;;;;18.28;64.55;102103.00;5074886;28;20036;-52
2022/08/31 02:31:22;;;;;;;3.97;1.65;;;;;;;18.27;64.74;102111.69;5066767;28;20036;-51
2022/08/31 02:33:47;;;;;;;4.13;1.75;;;;;;;18.29;64.55;102106.50;5069986;28;20032;-51
2022/08/31 02:36:13;;;;;;;2.72;1.85;;;;;;;18.32;64.27;102114.34;5071734;28;20147;-48
2022/08/31 02:38:39;;;;;;;3.42;1.75;;;;;;;18.38;64.05;102107.53;5067679;28;20059;-51
2022/08/31 02:41:05;;;;;;;3.35;1.60;;;;;;;18.30;64.51;102108.25;5068616;28;20040;-48
2022/08/31 02:43:31;;;;;;;3.42;1.67;;;;;;;18.23;64.34;102113.34;5068033;28;20028;-48
2022/08/31 02:45:56;;;;;;;5.00;1.90;;;;;;;18.26;64.61;102109.03;5066639;28;20058;-52
2022/08/31 02:48:22;;;;;;;5.40;2.00;;;;;;;18.29;64.34;102111.69;5068633;28;20047;-48
2022/08/31 02:50:50;;;;;;;3.95;2.03;;;;;;;18.25;64.31;102112.50;5069595;28;20032;-51
2022/08/31 02:53:18;;;;;;;3.90;1.83;;;;;;;18.19;64.31;102106.31;5070378;28;20043;-51
2022/08/31 02:55:43;;;;;;;3.20;1.80;;;;;;;18.22;64.47;102105.53;5069781;28;20036;-51
2022/08/31 02:58:10;;;;;;;2.80;1.77;;;;;;;18.20;64.16;102105.50;5068700;28;20055;-49
2022/08/31 03:00:37;;;;;;;2.83;1.52;;;;;;;18.19;64.59;102116.75;5066133;28;20043;-50
2022/08/31 03:03:03;;;;;;;2.35;1.60;;;;;;;18.20;63.86;102118.53;5073600;28;20434;-50
2022/08/31 03:05:29;;;;;;;3.53;1.70;;;;;;;18.09;64.38;102112.25;5069599;28;20028;-49
2022/08/31 03:07:54;;;;;;;4.22;1.80;;;;;;;18.13;64.28;102116.63;5066603;28;20263;-48
2022/08/31 03:10:22;;;;;;;2.55;1.52;;;;;;;18.14;64.06;102112.31;5068210;28;20036;-51
2022/08/31 03:12:48;;;;;;;5.78;1.85;;;;;;;18.10;63.92;102114.00;5070070;28;20055;-50
2022/08/31 03:15:15;;;;;;;2.63;1.70;;;;;;;18.02;64.33;102106.88;5069116;28;20461;-50
2022/08/31 03:17:41;;;;;;;2.88;1.80;;;;;;;18.02;64.16;102106.88;5067779;28;20142;-50
2022/08/31 03:20:08;;;;;;;4.63;1.63;;;;;;;18.01;64.04;102106.03;5073261;28;20157;-52
2022/08/31 03:22:33;;;;;;;4.85;1.92;;;;;;;17.92;64.19;102101.53;5074099;28;20066;-51
2022/08/31 03:24:59;;;;;;;3.03;1.80;;;;;;;17.90;64.21;102115.41;5074911;28;20028;-51
2022/08/31 03:27:26;;;;;;;1.80;1.70;;;;;;;17.86;64.22;102108.38;5074987;28;20020;-52
2022/08/31 03:29:52;;;;;;;4.18;1.70;;;;;;;17.87;64.20;102107.50;5072677;28;20032;-49
2022/08/31 03:32:18;;;;;;;2.85;1.70;;;;;;;17.86;64.15;102110.97;5069284;28;20488;-51
2022/08/31 03:34:44;;;;;;;4.40;1.80;;;;;;;17.87;64.00;102108.38;5064943;28;20043;-49
2022/08/31 03:37:10;;;;;;;3.38;1.65;;;;;;;17.86;64.11;102108.38;5062211;28;20044;-48
2022/08/31 03:39:39;;;;;;;2.78;1.52;;;;;;;17.80;64.08;102121.28;5074027;28;20060;-49
2022/08/31 03:42:08;;;;;;;3.15;1.65;;;;;;;17.86;63.78;102116.19;5069328;28;20047;-52
2022/08/31 03:44:33;;;;;;;;;;;;;;;18.05;62.52;102117.38;5073254;28;20034;-51
2022/08/31 03:46:59;;;;;;;5.85;1.80;;;;;;;17.79;63.42;102119.53;5073024;28;19912;-52
2022/08/31 03:49:25;;;;;;;4.85;1.63;;;;;;;17.72;63.39;102118.53;5072835;28;20051;-48
2022/08/31 03:51:51;;;;;;;4.47;1.73;;;;;;;17.72;63.44;102120.25;5070284;28;22251;-50
2022/08/31 03:54:17;;;;;;;3.60;1.75;;;;;;;17.70;63.18;102115.84;5076212;28;20469;-52
2022/08/31 03:56:42;;;;;;;4.63;1.80;;;;;;;17.69;62.89;102121.91;5071434;28;20516;-51
2022/08/31 03:59:08;;;;;;;2.80;1.63;;;;;;;17.64;62.88;102120.06;5072302;28;20116;-49
2022/08/31 04:01:35;;;;;;;3.55;1.42;;;;;;;17.65;62.96;102117.50;5071369;28;20059;-52
2022/08/31 04:04:01;;;;;;;3.72;1.35;;;;;;;17.66;62.60;102121.00;5073947;28;20036;-51
2022/08/31 04:06:26;;;;;;;6.32;1.50;;;;;;;17.63;62.46;102118.31;5072330;28;20036;-50
2022/08/31 04:08:52;;;;;;;3.80;1.30;;;;;;;17.59;62.58;102119.09;5072602;28;20042;-48
2022/08/31 04:11:18;;;;;;;3.95;1.40;;;;;;;17.61;62.44;102123.50;5073467;28;20083;-52
2022/08/31 04:13:44;;;;;;;5.15;1.50;;;;;;;17.56;62.61;102125.13;5071026;28;20028;-49
2022/08/31 04:16:11;;;;;;;3.22;1.30;;;;;;;17.60;62.17;102126.06;5069237;28;20621;-52
2022/08/31 04:18:41;;;;;;;2.80;1.40;;;;;;;17.64;62.43;102133.06;5067766;28;20028;-49
2022/08/31 04:21:17;;;;;;;2.17;1.27;;;;;;;17.66;61.99;102127.06;5067380;28;20069;-49
2022/08/31 04:23:42;;;;;;;3.60;1.55;;;;;;;17.51;61.88;102126.75;5073321;28;20484;-50
2022/08/31 04:26:29;;;;;;;3.03;1.30;;;;;;;17.62;61.67;102129.56;5073298;28;20503;-47
2022/08/31 04:28:55;;;;;;;3.35;1.75;;;;;;;17.54;61.91;102126.81;5070188;28;20019;-51
2022/08/31 04:31:22;;;;;;;5.35;1.30;;;;;;;17.52;61.67;102128.50;5068893;28;20492;-51
2022/08/31 04:33:48;;;;;;;2.92;1.50;;;;;;;17.49;61.55;102125.84;5071040;28;20032;-50
2022/08/31 04:36:17;;;;;;;2.90;1.50;;;;;;;17.49;61.55;102125.84;5072765;28;20455;-52
2022/08/31 04:38:45;;;;;;;3.22;1.30;;;;;;;17.50;61.28;102131.94;5074777;28;20020;-52
2022/08/31 04:41:12;;;;;;;5.03;1.35;;;;;;;17.49;60.98;102133.66;5072433;28;20032;-51
2022/08/31 04:43:41;;;;;;;1.83;1.15;;;;;;;17.47;61.04;102132.72;5071595;28;20032;-50
2022/08/31 04:46:07;;;;;;;2.10;1.30;;;;;;;17.44;60.82;102132.69;5068467;28;20133;-50
2022/08/31 04:48:34;;;;;;;1.80;1.40;;;;;;;17.46;60.79;102135.31;5071181;28;20048;-51
2022/08/31 04:51:11;;;;;;;1.65;1.27;;;;;;;17.42;60.63;102134.38;5071229;28;20035;-51
2022/08/31 04:53:38;;;;;;;4.78;1.55;;;;;;;17.31;60.96;102141.09;5071074;28;20032;-51
2022/08/31 04:56:13;;;;;;;4.70;1.30;;;;;;;17.21;60.34;102134.81;5068820;28;20102;-48
2022/08/31 04:59:09;;;;;;;4.85;1.30;;;;;;;17.42;60.30;102127.47;5074498;28;20045;-51
2022/08/31 05:01:38;;;;;;;1.95;1.10;;;;;;;17.29;60.03;102138.47;5052408;28;20048;-51
2022/08/31 05:04:05;;;;;;;2.78;1.30;;;;;;;17.18;60.05;102134.75;5069309;28;20059;-50
2022/08/31 05:06:33;;;;;;;5.43;1.30;;;;;;;17.11;60.17;102140.69;5072246;28;20048;-50
2022/08/31 05:09:05;;;;;;;2.50;1.13;;;;;;;17.11;60.07;102128.56;5068207;28;20024;-48
2022/08/31 05:11:31;;;;;;;3.92;1.27;;;;;;;17.04;59.97;102136.16;5067765;28;20032;-49
2022/08/31 05:13:59;;;;;;;3.30;1.25;;;;;;;17.06;60.12;102130.16;5071394;28;20623;-51
2022/08/31 05:16:29;;;;;;;2.72;1.20;;;;;;;17.06;60.15;102140.56;5073293;28;20103;-50
2022/08/31 05:18:57;;;;;;;3.92;1.20;;;;;;;17.03;59.92;102142.22;5066432;28;20745;-50
2022/08/31 05:21:27;;;;;;;4.15;1.10;;;;;;;17.05;59.97;102146.63;5071742;28;20031;-53
2022/08/31 05:23:57;;;;;;;1.67;1.13;;;;;;;17.08;59.94;102149.25;5067981;28;20036;-51
2022/08/31 05:26:26;;;;;;;2.20;1.10;;;;;;;17.13;60.07;102154.56;5073215;28;20024;-53
2022/08/31 05:28:52;;;;;;;;;;;;;;;17.34;59.09;102156.72;5069428;28;20038;-50
2022/08/31 05:31:17;;;;;;;6.30;1.30;;;;;;;17.13;59.53;102155.44;5068966;28;20332;-52
2022/08/31 05:33:46;;;;;;;4.00;1.20;;;;;;;17.13;59.50;102165.84;5073812;28;20408;-52
2022/08/31 05:36:12;;;;;;;4.80;1.10;;;;;;;17.14;59.62;102158.91;5073245;28;20038;-53
2022/08/31 05:38:37;;;;;;;2.47;1.00;;;;;;;17.14;59.72;102161.53;5067965;28;20047;-50
2022/08/31 05:41:04;;;;;;;1.60;1.00;;;;;;;16.98;59.32;102159.41;5067045;28;20024;-53
2022/08/31 05:43:31;;;;;;;3.75;1.13;;;;;;;17.03;59.60;102163.88;5073065;28;20050;-52
2022/08/31 05:45:56;;;;;;;3.92;1.20;;;;;;;16.98;59.50;102164.59;5074728;28;20143;-51
2022/08/31 05:48:22;;;;;;;3.00;1.33;;;;;;;16.94;59.81;102160.22;5074050;28;20820;-46
2022/08/31 05:50:47;;;;;;;2.10;1.00;;;;;;;16.90;59.48;102167.03;5069791;28;20035;-53
2022/08/31 05:53:14;;;;;;;1.90;1.20;;;;;;;16.95;59.46;102165.44;5069678;28;20035;-54
2022/08/31 05:55:39;;;;;;;2.45;0.90;;;;;;;16.92;59.30;102161.88;5070821;28;20059;-51
2022/08/31 05:58:05;;;;;;;1.58;1.00;;;;;;;17.03;59.13;102163.88;5064529;28;20075;-52
2022/08/31 06:00:31;;;;;;;2.38;1.40;;;;;;;17.05;59.26;102166.53;5076252;28;20082;-53
2022/08/31 06:02:56;;;;;;;3.38;1.20;;;;;;;17.03;58.91;102168.19;5067876;28;20038;-51
2022/08/31 06:05:22;;;;;;;3.83;1.40;;;;;;;17.07;59.59;102168.31;5071985;28;20036;-49
2022/08/31 06:07:47;;;;;;;2.97;1.10;;;;;;;17.13;58.67;102171.03;5070401;28;20024;-53
2022/08/31 06:10:13;;;;;;;2.38;1.20;;;;;;;17.06;58.78;102165.69;5074629;28;20051;-54
2022/08/31 06:12:41;;;;;;;4.00;1.10;;;;;;;17.13;58.64;102173.63;5072364;28;20504;-53
2022/08/31 06:15:07;;;;;;;5.75;1.10;;;;;;;17.09;58.28;102178.72;5076073;28;20500;-51
2022/08/31 06:17:33;;;;;;;2.13;1.10;;;;;;;17.16;58.17;102176.28;5072578;28;20107;-53
2022/08/31 06:19:59;;;;;;;2.88;1.00;;;;;;;17.30;57.93;102175.72;5066273;28;20060;-48
2022/08/31 06:22:25;;;;;;;2.75;1.25;;;;;;;17.35;58.21;102184.47;5069892;28;21269;-52
2022/08/31 06:24:50;;;;;;;1.80;1.40;;;;;;;17.39;57.74;102184.59;5070127;28;20065;-52
2022/08/31 06:27:16;;;;;;;6.20;1.10;;;;;;;17.33;57.38;102176.66;5072733;28;20613;-51
2022/08/31 06:29:41;;;;;;;5.78;1.10;;;;;;;17.36;57.20;102178.47;5070943;28;20405;-51
2022/08/31 06:32:09;;;;;;;1.70;1.13;;;;;;;17.46;57.46;102183.00;5069241;28;20020;-52
2022/08/31 06:34:35;;;;;;;1.80;1.13;;;;;;;17.49;57.75;102190.88;5071043;28;20032;-50
2022/08/31 06:37:01;;;;;;;1.85;0.93;;;;;;;17.52;56.73;102177.91;5072241;28;20056;-52
2022/08/31 06:39:27;;;;;;;4.00;1.10;;;;;;;17.50;56.67;102184.81;5076067;28;20051;-52
2022/08/31 06:41:52;;;;;;;3.92;1.10;;;;;;;17.56;56.70;102186.66;5074966;28;20508;-53
2022/08/31 06:44:22;;;;;;;2.10;1.17;;;;;;;17.64;56.47;102190.28;5071523;28;20115;-53
2022/08/31 06:46:49;;;;;;;2.55;1.13;;;;;;;17.72;56.06;102193.09;5071681;28;20604;-53
2022/08/31 06:49:15;;;;;;;3.13;1.20;;;;;;;17.76;55.91;102200.97;5071647;28;20046;-50
2022/08/31 06:51:41;;;;;;;3.17;1.17;;;;;;;17.75;56.10;102203.56;5074605;28;20079;-52
2022/08/31 06:54:09;;;;;;;2.10;1.10;;;;;;;17.79;55.33;102202.78;5074358;28;21467;-49
2022/08/31 06:56:35;;;;;;;3.35;1.13;;;;;;;17.89;55.33;102205.56;5073028;28;20150;-53
2022/08/31 06:59:02;;;;;;;5.80;1.20;;;;;;;18.04;56.05;102201.50;5074639;28;20119;-52
2022/08/31 07:01:30;;;;;;;6.32;1.08;;;;;;;18.10;54.67;102207.72;5075048;28;20468;-53
2022/08/31 07:03:57;;;;;;;4.95;1.20;;;;;;;18.13;54.68;102212.09;5074958;28;20041;-52
2022/08/31 07:06:28;;;;;;;3.20;1.17;;;;;;;18.09;54.60;102218.09;5073112;28;20028;-52
2022/08/31 07:09:02;;;;;;;2.97;1.00;;;;;;;18.08;55.11;102216.31;5073174;28;20481;-53
2022/08/31 07:11:37;;;;;;;4.93;1.10;;;;;;;18.04;55.09;102215.41;5072818;28;20374;-55
2022/08/31 07:14:03;;;;;;;3.70;1.17;;;;;;;17.99;54.76;102217.03;5074539;28;20020;-55
2022/08/31 07:16:29;;;;;;;5.22;1.20;;;;;;;18.00;55.02;102215.31;5078893;28;20064;-52
2022/08/31 07:18:58;;;;;;;2.90;1.10;;;;;;;18.02;55.02;102218.81;5069954;28;20543;-50
2022/08/31 07:21:25;;;;;;;3.65;1.15;;;;;;;17.98;54.99;102217.88;5077404;28;20043;-52
2022/08/31 07:23:52;;;;;;;3.10;1.10;;;;;;;17.95;55.39;102215.22;5073090;28;20484;-49
2022/08/31 07:26:24;;;;;;;14.95;1.63;;;;;;;17.98;60.70;102214.41;5073713;28;20024;-49
2022/08/31 07:28:54;;;;;;;5.60;1.30;;;;;;;17.88;57.52;102214.22;5070762;28;20032;-52
2022/08/31 07:31:25;;;;;;;6.00;1.20;;;;;;;17.81;56.77;102217.56;5075256;28;20525;-49
2022/08/31 07:33:54;;;;;;;3.63;1.50;;;;;;;17.74;57.14;102218.28;5075167;28;20586;-50
2022/08/31 07:36:21;;;;;;;2.20;1.52;;;;;;;17.75;58.18;102212.22;5075870;28;20140;-50
2022/08/31 07:44:17;;;;;;;3.22;1.42;;;;;;;17.93;57.69;102220.41;5075786;28;20067;-51
2022/08/31 07:46:44;;;;;;;4.05;1.00;;;;;;;17.99;57.77;102216.16;5072521;28;20028;-51
2022/08/31 07:49:12;;;;;;;4.82;1.40;;;;;;;18.03;57.57;102218.88;5076602;28;20025;-51
2022/08/31 07:51:49;;;;;;;2.40;1.23;;;;;;;18.06;56.89;102220.63;5070798;28;20412;-54
2022/08/31 07:54:19;;;;;;;4.93;1.33;;;;;;;18.22;57.39;102218.34;5072665;28;20050;-50
2022/08/31 07:56:46;;;;;;;5.65;1.20;;;;;;;18.34;57.49;102215.09;5075604;28;20047;-50
2022/08/31 07:59:13;;;;;;;2.60;1.20;;;;;;;18.46;57.09;102211.81;5072955;28;20412;-51
2022/08/31 08:01:40;;;;;;;5.07;1.50;;;;;;;18.45;56.61;102218.75;5071977;28;20081;-50
2022/08/31 08:04:06;;;;;;;4.28;1.50;;;;;;;18.55;57.00;102221.50;5072205;28;20527;-51
2022/08/31 08:06:32;;;;;;;2.30;1.63;;;;;;;18.60;56.87;102220.72;5075709;28;20062;-49
2022/08/31 08:09:05;;;;;;;3.17;1.20;;;;;;;18.60;56.63;102222.47;5064697;28;20111;-50
2022/08/31 08:11:32;;;;;;;3.88;1.50;;;;;;;18.75;56.83;102228.84;5076007;28;20028;-48
2022/08/31 08:13:57;;;;;;;2.33;1.40;;;;;;;18.91;56.69;102224.72;5067870;28;20062;-49
2022/08/31 08:16:24;;;;;;;2.85;1.50;;;;;;;18.99;55.59;102223.13;5071592;28;20056;-52
2022/08/31 08:18:49;;;;;;;7.45;1.60;;;;;;;19.12;55.37;102220.72;5067989;28;20024;-50
2022/08/31 08:21:15;;;;;;;4.80;2.03;;;;;;;19.23;54.78;102221.72;5074915;28;20029;-50
2022/08/31 08:23:40;;;;;;;3.80;1.38;;;;;;;19.39;54.36;102228.03;5073197;28;20116;-49
2022/08/31 08:26:08;;;;;;;3.50;1.40;;;;;;;19.56;55.16;102226.53;5074481;28;20020;-49
2022/08/31 08:28:34;;;;;;;1.60;1.20;;;;;;;19.74;55.12;102232.00;5076177;28;20016;-51
2022/08/31 08:31:00;;;;;;;4.85;1.45;;;;;;;19.91;54.73;102228.72;5068344;28;20039;-49
2022/08/31 08:33:29;;;;;;;1.67;1.40;;;;;;;20.08;54.80;102234.97;5070445;28;20032;-48
2022/08/31 08:36:01;;;;;;;2.47;1.38;;;;;;;20.15;54.20;102236.81;5070039;28;20115;-51
2022/08/31 08:38:32;;;;;;;2.67;1.60;;;;;;;20.22;53.45;102240.34;5074619;28;20021;-50
2022/08/31 08:40:59;;;;;;;6.10;1.67;;;;;;;20.15;53.22;102242.03;5068731;28;20036;-50
2022/08/31 08:43:35;;;;;;;3.33;1.95;;;;;;;20.15;53.39;102234.19;5070393;28;20048;-45
2022/08/31 08:46:03;;;;;;;3.90;1.77;;;;;;;20.22;53.05;102235.13;5066517;28;20059;-50
2022/08/31 08:48:31;;;;;;;3.15;1.45;;;;;;;20.28;53.61;102235.19;5069029;28;20024;-50
2022/08/31 08:51:00;;;;;;;3.35;1.90;;;;;;;20.32;53.30;102239.56;5069922;28;20043;-48
2022/08/31 08:53:29;;;;;;;1.60;1.40;;;;;;;20.42;53.15;102232.69;5077778;28;21788;-49
2022/08/31 08:55:55;;;;;;;;;;;;;;;20.50;53.19;102233.66;5068586;28;20027;-51
2022/08/31 08:58:21;;;;;;;4.63;1.80;;;;;;;20.45;53.51;102223.19;5071997;28;19928;-49
2022/08/31 09:00:52;;;;;;;8.40;1.63;;;;;;;20.52;52.75;102239.81;5072031;28;20102;-47
2022/08/31 09:03:38;;;;;;;5.68;1.90;;;;;;;20.47;53.22;102237.16;5070771;28;20158;-51
2022/08/31 09:06:14;;;;;;;5.53;1.70;;;;;;;20.55;52.72;102229.38;5068100;28;20044;-46
2022/08/31 09:08:45;;;;;;;3.85;1.80;;;;;;;20.62;52.99;102231.16;5073036;28;20147;-46
2022/08/31 09:11:40;;;;;;;3.28;1.92;;;;;;;20.63;52.68;102230.31;5062142;28;20094;-50
2022/08/31 09:14:57;;;;;;;8.95;1.98;;;;;;;20.74;52.86;102228.66;5042065;28;20058;-46
2022/08/31 09:17:43;;;;;;;3.58;1.90;;;;;;;20.81;52.70;102222.63;5033443;28;20033;-50
2022/08/31 09:20:11;;;;;;;6.18;1.88;;;;;;;20.87;52.35;102232.25;5032705;28;20108;-50
2022/08/31 09:22:49;;;;;;;5.80;1.80;;;;;;;20.98;52.29;102225.34;5058438;28;20048;-50
2022/08/31 09:25:27;;;;;;;3.25;1.70;;;;;;;21.03;51.65;102225.38;5068866;28;20343;-47
2022/08/31 09:27:57;;;;;;;2.63;1.92;;;;;;;21.07;52.43;102232.38;5074801;28;20057;-46
2022/08/31 09:30:50;;;;;;;7.10;1.90;;;;;;;21.20;52.19;102226.34;5069180;28;20028;-50
2022/08/31 09:33:16;;;;;;;3.40;2.00;;;;;;;21.13;52.03;102216.72;5072578;28;20024;-47
2022/08/31 09:35:41;;;;;;;4.88;2.00;;;;;;;21.14;52.18;102236.78;5074258;28;20672;-49
2022/08/31 09:38:11;;;;;;;4.05;2.17;;;;;;;21.12;51.76;102221.09;5070634;28;20097;-48
2022/08/31 09:40:47;;;;;;;5.35;2.45;;;;;;;21.22;52.02;102221.13;5068860;28;20047;-47
2022/08/31 09:43:37;;;;;;;2.67;1.83;;;;;;;21.35;52.25;102217.72;5069104;28;20864;-49
2022/08/31 09:46:09;;;;;;;2.95;1.92;;;;;;;21.44;52.25;102224.78;5069544;28;20064;-51
2022/08/31 09:48:55;;;;;;;4.22;2.15;;;;;;;21.47;52.24;102216.91;5069806;28;20099;-49
2022/08/31 09:51:28;;;;;;;4.00;2.20;;;;;;;21.44;51.67;102224.78;5069233;28;20043;-50
2022/08/31 09:56:55;;;;;;;4.72;2.30;;;;;;;21.48;51.79;102231.75;5074829;28;20416;-48
2022/08/31 09:59:46;;;;;;;3.25;2.28;;;;;;;21.48;51.37;102242.22;5072202;28;20023;-50
2022/08/31 10:02:11;;;;;;;4.88;2.50;;;;;;;21.37;51.91;102224.75;5071848;28;20032;-49
2022/08/31 10:05:02;;;;;;;4.55;2.22;;;;;;;21.39;51.46;102230.84;5068354;28;20421;-48
2022/08/31 10:07:54;;;;;;;6.10;3.22;;;;;;;21.36;52.04;102214.28;5074503;28;20487;-49
2022/08/31 10:10:25;;;;;;;5.85;2.38;;;;;;;21.44;52.19;102216.91;5062270;28;20729;-49
2022/08/31 10:12:56;;;;;;;4.97;2.28;;;;;;;21.40;52.38;102214.28;5063194;28;20024;-46
2022/08/31 10:15:31;;;;;;;5.25;2.80;;;;;;;21.41;52.25;102215.16;5069610;28;20036;-51
2022/08/31 10:18:13;;;;;;;5.05;2.38;;;;;;;21.46;53.08;102213.44;5069108;28;20039;-48
2022/08/31 10:20:52;;;;;;;4.43;2.38;;;;;;;21.43;52.68;102221.28;5068727;28;20465;-46
2022/08/31 10:23:20;;;;;;;;;;;;;;;21.53;52.73;102209.97;5072284;28;20031;-51
2022/08/31 10:26:04;;;;;;;5.15;2.50;;;;;;;21.59;53.41;102209.13;5063033;28;20033;-48
2022/08/31 10:28:50;;;;;;;3.95;2.40;;;;;;;21.75;52.15;102210.06;5067013;28;20108;-49
2022/08/31 10:31:30;;;;;;;6.18;2.63;;;;;;;21.77;52.03;102203.94;5066811;28;20020;-49
2022/08/31 10:36:48;;;;;;;7.47;2.53;;;;;;;21.89;52.15;102198.75;5066800;28;20086;-50
2022/08/31 10:39:31;;;;;;;5.85;2.60;;;;;;;21.98;52.06;102197.03;5068038;28;20058;-54
2022/08/31 10:42:04;;;;;;;6.78;2.83;;;;;;;22.07;51.42;102192.66;5067320;28;20028;-52
2022/08/31 10:44:51;;;;;;;11.73;2.72;;;;;;;22.19;51.78;102192.72;5071064;28;20040;-51
2022/08/31 10:47:18;;;;;;;3.63;2.90;;;;;;;22.34;51.41;102196.25;5069100;28;20086;-49
2022/08/31 10:49:44;;;;;;;4.65;2.40;;;;;;;22.57;50.87;102183.09;5066888;28;20131;-48
2022/08/31 10:52:20;;;;;;;5.45;2.30;;;;;;;22.77;50.92;102190.97;5074054;28;20035;-50
2022/08/31 10:55:05;;;;;;;6.20;2.20;;;;;;;22.98;50.16;102194.44;5068860;28;20032;-47
2022/08/31 10:57:53;;;;;;;4.15;2.53;;;;;;;23.07;49.54;102200.56;5068271;28;20132;-50
2022/08/31 11:00:41;;;;;;;4.57;2.45;;;;;;;23.35;49.56;102191.72;5070769;28;20697;-48
2022/08/31 11:03:21;;;;;;;5.50;2.40;;;;;;;23.39;48.89;102192.59;5069369;28;20031;-47
2022/08/31 11:06:15;;;;;;;6.22;2.40;;;;;;;23.60;48.60;102191.59;5065008;28;20113;-49
2022/08/31 11:08:47;;;;;;;7.00;2.30;;;;;;;23.66;47.60;102200.38;5068055;28;20513;-51
2022/08/31 11:11:34;;;;;;;5.70;2.70;;;;;;;23.74;47.58;102200.34;5070809;28;20012;-46
2022/08/31 11:14:49;;;;;;;4.20;2.40;;;;;;;23.89;47.62;102200.22;5068025;28;20123;-49
2022/08/31 11:17:58;;;;;;;5.28;2.20;;;;;;;24.03;47.27;102187.91;5061690;28;20036;-48
2022/08/31 11:20:53;;;;;;;5.38;2.25;;;;;;;24.10;46.88;102195.75;5066538;28;20102;-47
2022/08/31 11:23:24;;;;;;;5.13;2.35;;;;;;;24.18;46.48;102192.16;5064039;28;20066;-50
2022/08/31 11:26:05;;;;;;;8.25;2.63;;;;;;;24.08;46.58;102193.97;5063473;28;20035;-46
2022/08/31 11:28:48;;;;;;;3.28;2.20;;;;;;;23.88;46.71;102187.13;5061958;28;20122;-48
2022/08/31 11:31:22;;;;;;;8.23;2.70;;;;;;;23.54;47.53;102182.91;5067580;28;20119;-48
2022/08/31 11:33:50;;;;;;;6.30;2.30;;;;;;;23.60;48.07;102179.38;5070556;28;20029;-49
2022/08/31 11:36:49;;;;;;;7.60;2.60;;;;;;;23.99;47.93;102177.41;5065901;28;20028;-45
2022/08/31 11:39:29;;;;;;;4.60;2.05;;;;;;;24.31;46.90;102172.78;5068563;28;20027;-47
2022/08/31 11:41:57;;;;;;;8.25;2.90;;;;;;;24.37;46.30;102176.28;5073716;28;20031;-49
2022/08/31 11:44:29;;;;;;;7.18;2.47;;;;;;;24.46;45.75;102171.84;5071814;28;20481;-47
2022/08/31 11:47:28;;;;;;;7.68;2.55;;;;;;;24.38;46.17;102172.75;5068691;28;20039;-48
2022/08/31 11:50:02;;;;;;;6.18;2.20;;;;;;;24.23;46.59;102168.47;5070002;28;20437;-47
2022/08/31 11:52:47;;;;;;;6.57;2.28;;;;;;;24.26;46.79;102163.19;5071396;28;20028;-45
2022/08/31 11:55:47;;;;;;;4.68;2.83;;;;;;;24.31;47.41;102159.63;5064449;28;20040;-49